sensor_id;sensor_type;location;lat;lon;timestamp;pressure;altitude;pressure_sealevel;temperature;humidity
34241;BME280;20503;50.200;19.508;2023-03-16T00:01:43;101764.38;;;-1.08;100.00
34241;BME280;20503;50.200;19.508;2023-03-16T00:06:50;101761.05;;;-0.99;100.00
34241;BME280;20503;50.200;19.508;2023-03-16T00:12:02;101768.33;;;-1.01;100.00
34241;BME280;20503;50.200;19.508;2023-03-16T00:17:06;101777.06;;;-1.10;100.00
34241;BME280;20503;50.200;19.508;2023-03-16T00:22:14;101778.91;;;-1.23;100.00
34241;BME280;20503;50.200;19.508;2023-03-16T00:27:22;101781.29;;;-1.31;100.00
34241;BME280;20503;50.200;19.508;2023-03-16T00:32:30;101783.75;;;-1.28;100.00
34241;BME280;20503;50.200;19.508;2023-03-16T00:37:36;101787.71;;;-1.21;100.00
34241;BME280;20503;50.200;19.508;2023-03-16T00:42:43;101797.16;;;-1.15;100.00
34241;BME280;20503;50.200;19.508;2023-03-16T00:47:50;101783.31;;;-1.22;100.00
34241;BME280;20503;50.200;19.508;2023-03-16T00:52:58;101793.82;;;-1.19;100.00
34241;BME280;20503;50.200;19.508;2023-03-16T00:58:06;101799.20;;;-1.19;100.00
34241;BME280;20503;50.200;19.508;2023-03-16T01:03:14;101793.00;;;-1.32;100.00
34241;BME280;20503;50.200;19.508;2023-03-16T01:08:22;101798.14;;;-1.29;100.00
34241;BME280;20503;50.200;19.508;2023-03-16T01:13:29;101804.68;;;-1.33;100.00
34241;BME280;20503;50.200;19.508;2023-03-16T01:18:37;101806.18;;;-1.41;100.00
34241;BME280;20503;50.200;19.508;2023-03-16T01:23:45;101809.40;;;-1.49;100.00
34241;BME280;20503;50.200;19.508;2023-03-16T01:28:52;101819.52;;;-1.65;100.00
34241;BME280;20503;50.200;19.508;2023-03-16T01:34:01;101821.84;;;-1.73;100.00
34241;BME280;20503;50.200;19.508;2023-03-16T01:39:10;101827.19;;;-1.85;100.00
34241;BME280;20503;50.200;19.508;2023-03-16T01:44:19;101830.40;;;-1.92;100.00
34241;BME280;20503;50.200;19.508;2023-03-16T01:49:33;101835.52;;;-2.02;100.00
34241;BME280;20503;50.200;19.508;2023-03-16T01:59:52;101822.59;;;-2.22;100.00
34241;BME280;20503;50.200;19.508;2023-03-16T02:10:11;101820.72;;;-2.34;100.00
34241;BME280;20503;50.200;19.508;2023-03-16T02:15:15;101827.75;;;-2.45;100.00
34241;BME280;20503;50.200;19.508;2023-03-16T02:30:42;101853.07;;;-2.63;100.00
34241;BME280;20503;50.200;19.508;2023-03-16T02:35:44;101856.32;;;-2.72;100.00
34241;BME280;20503;50.200;19.508;2023-03-16T02:40:55;101875.27;;;-2.75;100.00
34241;BME280;20503;50.200;19.508;2023-03-16T02:46:00;101877.83;;;-2.74;100.00
34241;BME280;20503;50.200;19.508;2023-03-16T02:51:05;101880.91;;;-2.80;100.00
34241;BME280;20503;50.200;19.508;2023-03-16T02:56:07;101894.10;;;-2.77;100.00
34241;BME280;20503;50.200;19.508;2023-03-16T03:01:14;101903.58;;;-2.71;100.00
34241;BME280;20503;50.200;19.508;2023-03-16T03:06:21;101898.89;;;-2.68;100.00
34241;BME280;20503;50.200;19.508;2023-03-16T03:11:30;101901.08;;;-2.60;100.00
34241;BME280;20503;50.200;19.508;2023-03-16T03:16:37;101921.84;;;-2.64;100.00
34241;BME280;20503;50.200;19.508;2023-03-16T03:21:45;101918.32;;;-2.78;100.00
34241;BME280;20503;50.200;19.508;2023-03-16T03:26:53;101939.55;;;-2.89;100.00
34241;BME280;20503;50.200;19.508;2023-03-16T03:32:02;101936.30;;;-2.94;100.00
34241;BME280;20503;50.200;19.508;2023-03-16T03:37:08;101946.25;;;-2.96;100.00
34241;BME280;20503;50.200;19.508;2023-03-16T03:42:16;101955.81;;;-2.92;100.00
34241;BME280;20503;50.200;19.508;2023-03-16T03:47:24;101961.44;;;-2.97;100.00
34241;BME280;20503;50.200;19.508;2023-03-16T03:52:32;101963.40;;;-3.14;100.00
34241;BME280;20503;50.200;19.508;2023-03-16T03:57:40;101969.55;;;-3.12;100.00
34241;BME280;20503;50.200;19.508;2023-03-16T04:02:47;101972.06;;;-2.95;100.00
34241;BME280;20503;50.200;19.508;2023-03-16T04:07:56;101979.14;;;-2.94;100.00
34241;BME280;20503;50.200;19.508;2023-03-16T04:13:03;101975.12;;;-2.87;100.00
34241;BME280;20503;50.200;19.508;2023-03-16T04:18:10;101978.36;;;-2.82;100.00
34241;BME280;20503;50.200;19.508;2023-03-16T04:23:19;101975.69;;;-2.82;100.00
34241;BME280;20503;50.200;19.508;2023-03-16T04:28:27;101984.59;;;-2.82;100.00
34241;BME280;20503;50.200;19.508;2023-03-16T04:33:37;101988.99;;;-2.81;100.00
34241;BME280;20503;50.200;19.508;2023-03-16T04:38:42;101986.29;;;-2.95;100.00
34241;BME280;20503;50.200;19.508;2023-03-16T04:43:50;101987.82;;;-3.05;100.00
34241;BME280;20503;50.200;19.508;2023-03-16T04:48:58;101990.80;;;-2.95;100.00
34241;BME280;20503;50.200;19.508;2023-03-16T04:54:06;101996.34;;;-2.84;100.00
34241;BME280;20503;50.200;19.508;2023-03-16T04:59:14;102002.78;;;-3.16;100.00
34241;BME280;20503;50.200;19.508;2023-03-16T05:04:22;102013.88;;;-3.22;100.00
34241;BME280;20503;50.200;19.508;2023-03-16T05:09:30;102017.58;;;-3.25;100.00
34241;BME280;20503;50.200;19.508;2023-03-16T05:14:38;102019.53;;;-3.13;100.00
34241;BME280;20503;50.200;19.508;2023-03-16T05:19:45;102026.07;;;-3.03;100.00
34241;BME280;20503;50.200;19.508;2023-03-16T05:24:53;102028.45;;;-2.55;100.00
34241;BME280;20503;50.200;19.508;2023-03-16T05:30:01;102022.98;;;-2.39;100.00
34241;BME280;20503;50.200;19.508;2023-03-16T05:35:10;102034.66;;;-2.26;100.00
34241;BME280;20503;50.200;19.508;2023-03-16T05:40:17;102026.77;;;-2.15;100.00
34241;BME280;20503;50.200;19.508;2023-03-16T05:45:25;102040.03;;;-1.72;100.00
34241;BME280;20503;50.200;19.508;2023-03-16T05:50:32;102041.81;;;-1.59;100.00
34241;BME280;20503;50.200;19.508;2023-03-16T05:55:40;102047.84;;;-1.29;100.00
34241;BME280;20503;50.200;19.508;2023-03-16T06:00:48;102059.59;;;-0.66;100.00
34241;BME280;20503;50.200;19.508;2023-03-16T06:05:56;102055.89;;;0.10;100.00
34241;BME280;20503;50.200;19.508;2023-03-16T06:11:05;102070.22;;;0.46;100.00
34241;BME280;20503;50.200;19.508;2023-03-16T06:16:12;102066.64;;;0.58;100.00
34241;BME280;20503;50.200;19.508;2023-03-16T06:21:20;102065.94;;;0.91;100.00
34241;BME280;20503;50.200;19.508;2023-03-16T06:26:28;102071.56;;;0.64;100.00
34241;BME280;20503;50.200;19.508;2023-03-16T06:31:36;102080.48;;;0.65;100.00
34241;BME280;20503;50.200;19.508;2023-03-16T06:36:44;102074.02;;;0.67;100.00
34241;BME280;20503;50.200;19.508;2023-03-16T06:41:52;102088.97;;;0.95;100.00
34241;BME280;20503;50.200;19.508;2023-03-16T06:47:01;102095.13;;;1.31;100.00
34241;BME280;20503;50.200;19.508;2023-03-16T06:52:09;102096.47;;;1.60;100.00
34241;BME280;20503;50.200;19.508;2023-03-16T06:57:17;102111.62;;;2.50;100.00
34241;BME280;20503;50.200;19.508;2023-03-16T07:02:25;102108.99;;;3.85;100.00
34241;BME280;20503;50.200;19.508;2023-03-16T07:07:32;102112.85;;;4.82;100.00
34241;BME280;20503;50.200;19.508;2023-03-16T07:12:41;102119.52;;;5.93;100.00
34241;BME280;20503;50.200;19.508;2023-03-16T07:17:48;102127.99;;;6.27;100.00
34241;BME280;20503;50.200;19.508;2023-03-16T07:22:56;102133.75;;;6.60;100.00
34241;BME280;20503;50.200;19.508;2023-03-16T07:28:05;102129.95;;;6.98;100.00
34241;BME280;20503;50.200;19.508;2023-03-16T11:16:22;102225.66;;;6.57;55.03
34241;BME280;20503;50.200;19.508;2023-03-16T11:26:40;102229.53;;;5.41;61.07
34241;BME280;20503;50.200;19.508;2023-03-16T11:31:53;102223.09;;;5.42;60.41
34241;BME280;20503;50.200;19.508;2023-03-16T11:37:09;102222.70;;;5.74;61.48
34241;BME280;20503;50.200;19.508;2023-03-16T11:47:50;102209.52;;;7.19;55.91
34241;BME280;20503;50.200;19.508;2023-03-16T11:53:02;102213.34;;;8.22;52.79
34241;BME280;20503;50.200;19.508;2023-03-16T12:03:35;102212.07;;;7.20;55.24
34241;BME280;20503;50.200;19.508;2023-03-16T12:35:39;102195.15;;;6.63;48.89
34241;BME280;20503;50.200;19.508;2023-03-16T12:40:55;102205.28;;;6.70;50.80
34241;BME280;20503;50.200;19.508;2023-03-16T12:46:25;102202.34;;;6.54;52.75
34241;BME280;20503;50.200;19.508;2023-03-16T12:51:18;102198.43;;;6.66;54.71
34241;BME280;20503;50.200;19.508;2023-03-16T13:01:40;102212.15;;;6.28;55.87
34241;BME280;20503;50.200;19.508;2023-03-16T13:06:59;102206.77;;;6.55;55.19
34241;BME280;20503;50.200;19.508;2023-03-16T13:12:00;102216.84;;;6.45;54.99
34241;BME280;20503;50.200;19.508;2023-03-16T13:27:33;102199.36;;;6.84;55.45
34241;BME280;20503;50.200;19.508;2023-03-16T13:32:38;102206.60;;;6.66;54.06
34241;BME280;20503;50.200;19.508;2023-03-16T13:37:46;102202.80;;;6.40;55.05
34241;BME280;20503;50.200;19.508;2023-03-16T13:42:50;102208.07;;;6.51;55.68
34241;BME280;20503;50.200;19.508;2023-03-16T13:48:02;102201.47;;;6.90;52.59
34241;BME280;20503;50.200;19.508;2023-03-16T13:53:29;102205.04;;;7.27;50.56
34241;BME280;20503;50.200;19.508;2023-03-16T13:58:28;102198.96;;;6.79;51.00
34241;BME280;20503;50.200;19.508;2023-03-16T14:03:37;102206.43;;;7.04;51.20
34241;BME280;20503;50.200;19.508;2023-03-16T14:08:39;102205.11;;;7.35;49.62
34241;BME280;20503;50.200;19.508;2023-03-16T14:13:42;102211.44;;;7.53;50.84
34241;BME280;20503;50.200;19.508;2023-03-16T14:40:37;102203.14;;;7.28;49.04
34241;BME280;20503;50.200;19.508;2023-03-16T14:45:40;102209.98;;;6.78;49.82
34241;BME280;20503;50.200;19.508;2023-03-16T14:50:41;102218.68;;;6.91;49.20
34241;BME280;20503;50.200;19.508;2023-03-16T14:55:42;102226.41;;;6.95;49.51
34241;BME280;20503;50.200;19.508;2023-03-16T15:00:44;102227.71;;;7.18;49.97
34241;BME280;20503;50.200;19.508;2023-03-16T15:05:49;102217.66;;;6.92;49.84
34241;BME280;20503;50.200;19.508;2023-03-16T15:10:52;102214.54;;;6.87;52.95
34241;BME280;20503;50.200;19.508;2023-03-16T15:15:54;102216.80;;;6.91;49.65
34241;BME280;20503;50.200;19.508;2023-03-16T15:20:55;102214.41;;;6.23;50.03
34241;BME280;20503;50.200;19.508;2023-03-16T15:25:58;102220.47;;;6.08;51.06
34241;BME280;20503;50.200;19.508;2023-03-16T15:31:03;102223.20;;;5.98;51.13
34241;BME280;20503;50.200;19.508;2023-03-16T15:36:12;102218.59;;;5.80;52.89
34241;BME280;20503;50.200;19.508;2023-03-16T15:41:15;102223.03;;;6.00;51.71
34241;BME280;20503;50.200;19.508;2023-03-16T15:46:17;102229.73;;;6.24;48.78
34241;BME280;20503;50.200;19.508;2023-03-16T15:51:26;102221.40;;;6.45;49.17
34241;BME280;20503;50.200;19.508;2023-03-16T15:56:31;102231.02;;;6.30;48.56
34241;BME280;20503;50.200;19.508;2023-03-16T16:01:43;102224.31;;;6.05;49.73
34241;BME280;20503;50.200;19.508;2023-03-16T16:06:46;102247.60;;;5.60;48.77
34241;BME280;20503;50.200;19.508;2023-03-16T16:11:48;102247.84;;;5.48;50.17
34241;BME280;20503;50.200;19.508;2023-03-16T16:16:52;102247.09;;;5.27;51.06
34241;BME280;20503;50.200;19.508;2023-03-16T16:21:55;102247.42;;;5.04;52.07
34241;BME280;20503;50.200;19.508;2023-03-16T16:26:56;102258.63;;;4.90;51.92
34241;BME280;20503;50.200;19.508;2023-03-16T16:31:58;102252.01;;;4.73;53.50
34241;BME280;20503;50.200;19.508;2023-03-16T16:37:01;102264.98;;;4.49;53.98
34241;BME280;20503;50.200;19.508;2023-03-16T16:42:03;102270.09;;;4.22;54.93
34241;BME280;20503;50.200;19.508;2023-03-16T16:47:15;102261.86;;;3.92;56.79
34241;BME280;20503;50.200;19.508;2023-03-16T16:52:18;102271.00;;;3.49;60.00
34241;BME280;20503;50.200;19.508;2023-03-16T16:57:21;102284.20;;;2.88;60.35
34241;BME280;20503;50.200;19.508;2023-03-16T17:07:39;102275.77;;;2.25;62.34
34241;BME280;20503;50.200;19.508;2023-03-16T17:12:42;102291.20;;;2.12;62.54
34241;BME280;20503;50.200;19.508;2023-03-16T17:17:46;102285.40;;;2.05;66.76
34241;BME280;20503;50.200;19.508;2023-03-16T17:22:51;102285.83;;;1.88;65.24
34241;BME280;20503;50.200;19.508;2023-03-16T17:27:55;102276.35;;;1.60;68.76
34241;BME280;20503;50.200;19.508;2023-03-16T17:33:09;102280.18;;;1.45;68.27
34241;BME280;20503;50.200;19.508;2023-03-16T17:38:20;102285.12;;;1.27;68.58
34241;BME280;20503;50.200;19.508;2023-03-16T17:43:23;102287.53;;;1.07;69.91
34241;BME280;20503;50.200;19.508;2023-03-16T17:48:27;102299.41;;;0.92;72.18
34241;BME280;20503;50.200;19.508;2023-03-16T17:53:30;102303.74;;;0.69;73.56
34241;BME280;20503;50.200;19.508;2023-03-16T17:58:34;102297.30;;;0.59;75.18
34241;BME280;20503;50.200;19.508;2023-03-16T18:03:37;102301.50;;;0.51;75.34
34241;BME280;20503;50.200;19.508;2023-03-16T18:08:38;102305.56;;;0.44;75.71
34241;BME280;20503;50.200;19.508;2023-03-16T18:13:40;102305.34;;;0.34;77.12
34241;BME280;20503;50.200;19.508;2023-03-16T18:18:42;102308.24;;;0.19;79.00
34241;BME280;20503;50.200;19.508;2023-03-16T18:23:45;102300.70;;;0.11;79.16
34241;BME280;20503;50.200;19.508;2023-03-16T18:28:47;102319.92;;;0.05;80.09
34241;BME280;20503;50.200;19.508;2023-03-16T18:33:59;102310.13;;;0.04;80.21
34241;BME280;20503;50.200;19.508;2023-03-16T18:39:04;102325.13;;;-0.18;81.39
34241;BME280;20503;50.200;19.508;2023-03-16T18:44:16;102330.84;;;-0.22;82.07
34241;BME280;20503;50.200;19.508;2023-03-16T18:49:24;102332.81;;;-0.38;81.03
34241;BME280;20503;50.200;19.508;2023-03-16T18:54:31;102345.41;;;-0.53;82.84
34241;BME280;20503;50.200;19.508;2023-03-16T18:59:34;102337.97;;;-0.62;83.72
34241;BME280;20503;50.200;19.508;2023-03-16T19:04:36;102336.59;;;-0.55;83.31
34241;BME280;20503;50.200;19.508;2023-03-16T19:09:37;102344.66;;;-0.55;82.25
34241;BME280;20503;50.200;19.508;2023-03-16T19:14:38;102343.14;;;-0.59;84.05
34241;BME280;20503;50.200;19.508;2023-03-16T19:19:40;102340.73;;;-0.63;84.78
34241;BME280;20503;50.200;19.508;2023-03-16T19:24:48;102349.01;;;-0.66;84.09
34241;BME280;20503;50.200;19.508;2023-03-16T19:29:52;102348.73;;;-0.76;85.53
34241;BME280;20503;50.200;19.508;2023-03-16T19:34:53;102350.07;;;-0.83;85.91
34241;BME280;20503;50.200;19.508;2023-03-16T19:39:56;102367.08;;;-0.96;85.95
34241;BME280;20503;50.200;19.508;2023-03-16T19:45:02;102364.51;;;-0.98;86.73
34241;BME280;20503;50.200;19.508;2023-03-16T19:50:28;102373.02;;;-0.91;89.89
34241;BME280;20503;50.200;19.508;2023-03-16T19:55:28;102372.84;;;-1.02;89.38
34241;BME280;20503;50.200;19.508;2023-03-16T20:00:32;102378.70;;;-1.10;89.64
34241;BME280;20503;50.200;19.508;2023-03-16T20:05:36;102377.05;;;-1.12;91.05
34241;BME280;20503;50.200;19.508;2023-03-16T20:10:41;102386.46;;;-1.19;90.75
34241;BME280;20503;50.200;19.508;2023-03-16T20:15:43;102385.77;;;-1.23;91.83
34241;BME280;20503;50.200;19.508;2023-03-16T20:20:45;102385.77;;;-1.23;88.59
34241;BME280;20503;50.200;19.508;2023-03-16T20:25:47;102382.70;;;-1.17;89.58
34241;BME280;20503;50.200;19.508;2023-03-16T20:30:49;102373.17;;;-1.50;94.55
34241;BME280;20503;50.200;19.508;2023-03-16T20:35:53;102377.12;;;-1.42;95.60
34241;BME280;20503;50.200;19.508;2023-03-16T20:40:56;102377.88;;;-1.40;91.53
34241;BME280;20503;50.200;19.508;2023-03-16T20:46:00;102380.98;;;-1.04;84.86
34241;BME280;20503;50.200;19.508;2023-03-16T20:51:04;102386.00;;;-0.98;85.87
34241;BME280;20503;50.200;19.508;2023-03-16T21:01:18;102371.36;;;-1.36;90.02
34241;BME280;20503;50.200;19.508;2023-03-16T21:06:24;102383.52;;;-1.44;90.96
34241;BME280;20503;50.200;19.508;2023-03-16T21:11:32;102368.84;;;-1.53;92.12
34241;BME280;20503;50.200;19.508;2023-03-16T21:16:35;102374.81;;;-1.48;92.85
34241;BME280;20503;50.200;19.508;2023-03-16T21:21:37;102374.81;;;-1.48;90.97
34241;BME280;20503;50.200;19.508;2023-03-16T21:26:44;102376.01;;;-1.67;92.74
34241;BME280;20503;50.200;19.508;2023-03-16T21:31:49;102381.63;;;-1.72;95.51
34241;BME280;20503;50.200;19.508;2023-03-16T21:36:56;102384.09;;;-1.83;97.80
34241;BME280;20503;50.200;19.508;2023-03-16T21:42:04;102380.82;;;-1.87;98.63
34241;BME280;20503;50.200;19.508;2023-03-16T21:47:21;102388.48;;;-1.95;98.86
34241;BME280;20503;50.200;19.508;2023-03-16T21:52:25;102386.12;;;-2.01;100.00
34241;BME280;20503;50.200;19.508;2023-03-16T21:57:28;102394.91;;;-2.13;100.00
34241;BME280;20503;50.200;19.508;2023-03-16T22:02:35;102400.85;;;-2.08;100.00
34241;BME280;20503;50.200;19.508;2023-03-16T22:07:44;102390.72;;;-2.03;100.00
34241;BME280;20503;50.200;19.508;2023-03-16T22:12:52;102392.99;;;-2.11;100.00
34241;BME280;20503;50.200;19.508;2023-03-16T22:18:05;102396.19;;;-2.20;100.00
34241;BME280;20503;50.200;19.508;2023-03-16T22:28:27;102362.62;;;-2.12;100.00
34241;BME280;20503;50.200;19.508;2023-03-16T22:33:31;102368.23;;;-2.01;100.00
34241;BME280;20503;50.200;19.508;2023-03-16T22:38:36;102357.38;;;-2.13;100.00
34241;BME280;20503;50.200;19.508;2023-03-16T22:43:42;102360.98;;;-2.14;100.00
34241;BME280;20503;50.200;19.508;2023-03-16T22:48:48;102346.27;;;-2.07;100.00
34241;BME280;20503;50.200;19.508;2023-03-16T22:54:04;102350.35;;;-1.87;100.00
34241;BME280;20503;50.200;19.508;2023-03-16T22:59:13;102357.52;;;-2.16;100.00
34241;BME280;20503;50.200;19.508;2023-03-16T23:04:22;102352.71;;;-2.25;100.00
34241;BME280;20503;50.200;19.508;2023-03-16T23:09:28;102342.04;;;-2.11;100.00
34241;BME280;20503;50.200;19.508;2023-03-16T23:14:33;102346.27;;;-2.07;100.00
34241;BME280;20503;50.200;19.508;2023-03-16T23:19:38;102340.90;;;-2.07;100.00
34241;BME280;20503;50.200;19.508;2023-03-16T23:24:42;102342.75;;;-2.23;100.00
34241;BME280;20503;50.200;19.508;2023-03-16T23:29:49;102348.00;;;-2.06;100.00
34241;BME280;20503;50.200;19.508;2023-03-16T23:34:58;102348.17;;;-2.09;100.00
34241;BME280;20503;50.200;19.508;2023-03-16T23:40:05;102354.51;;;-2.26;100.00
34241;BME280;20503;50.200;19.508;2023-03-16T23:45:23;102353.07;;;-2.47;100.00
34241;BME280;20503;50.200;19.508;2023-03-16T23:50:30;102351.09;;;-2.43;100.00
34241;BME280;20503;50.200;19.508;2023-03-16T23:55:33;102346.34;;;-2.54;100.00
